Porthcawl, United Kingdom
Current Conditions -  °F | °C
As of 4:50 PM on Monday 24 Nov 2014 (Local Time) from EGDX Reporting Station
Clear Clear  
Wind Chill: 43°   Ceiling: Unl
Heat Index: 43°   Visibility: 6mi
Dew Point: 41°   Wind: 2mph
Humidity: 93%   Direction: 50°NE
Pressure: 30.33"   Gusts: NA
Location:  51.48°N, 3.7°W
Report Text: EGDX 241650Z AUTO 05002KT 9999 NCD 06/05 Q1027
Loading
Personal Weather Stations






























Interactive Weather Map New forecast layout! Learn more

10-Day Weather Forecast

Advertisements
Track Severe Weather on mobile